Datos actuales meteorológicos del Aeropuerto de Valencia      LEVC Valencia Airport



Temperatura
11°C Temperatura
0°C Punto de rocío
47% Humedad



Viento
37 KM/H
23 MPH
10 M/S
20 NUDO



300°
ONO
Condiciones actuales

Parcialmente nublado Parcialmente nublado
Presión 1000.92 (hPa) - 29.56 (inHg)
Visibilidad 6.2 (milla) - 10 (km)
✈️ Manises
Código de aeropuerto LEVC

localidad: Valencia Airport
Distancia de Meteo Lliria: 18 (km)

Metar:
LEVC 051030Z 30020KT 9999 FEW025 11/M00 Q1001 NOSIG

Hora: 05-12-2020 11:30 CET

Follow @meteolliria2013